createdAt,value
2023-03-13T00:10:01.016Z,98027.48
2023-03-13T00:20:09.811Z,98011.82
2023-03-13T00:30:15.973Z,97991.98
2023-03-13T00:40:23.431Z,97982.35
2023-03-13T00:50:30.453Z,97965.27
2023-03-13T01:00:37.419Z,97960.10
2023-03-13T01:10:44.528Z,97957.66
2023-03-13T01:20:51.735Z,97950.78
2023-03-13T01:31:00.554Z,97950.47
2023-03-13T01:41:05.523Z,97953.06
2023-03-13T01:51:16.847Z,97951.61
2023-03-13T02:01:24.788Z,97950.52
2023-03-13T02:11:36.713Z,97961.83
2023-03-13T02:21:50.688Z,97974.14
2023-03-13T02:31:58.177Z,97969.02
2023-03-13T02:42:06.838Z,97978.27
2023-03-13T02:52:15.391Z,97986.46
2023-03-13T03:02:22.941Z,97992.59
2023-03-13T03:12:30.579Z,97991.17
2023-03-13T03:22:38.818Z,97997.94
2023-03-13T03:32:46.122Z,98002.36
2023-03-13T03:42:53.473Z,98004.06
2023-03-13T03:53:00.651Z,97998.67
2023-03-13T04:03:08.269Z,97993.14
2023-03-13T04:13:15.776Z,98005.77
2023-03-13T04:23:22.851Z,98012.67
2023-03-13T04:33:30.623Z,97996.46
2023-03-13T04:43:37.723Z,97989.09
2023-03-13T04:53:44.779Z,97984.30
2023-03-13T05:03:52.102Z,97977.86
2023-03-13T05:13:59.398Z,97961.70
2023-03-13T05:24:07.227Z,97954.34
2023-03-13T05:34:14.085Z,97943.43
2023-03-13T05:44:21.362Z,97945.36
2023-03-13T05:54:28.207Z,97945.80
2023-03-13T06:04:35.821Z,97943.45
2023-03-13T06:14:43.146Z,97936.30
2023-03-13T06:24:50.488Z,97940.86
2023-03-13T06:34:57.774Z,97936.30
2023-03-13T06:45:05.233Z,97932.08
2023-03-13T06:55:13.860Z,97928.38
2023-03-13T07:05:21.207Z,97927.30
2023-03-13T07:15:27.357Z,97919.73
2023-03-13T07:35:41.244Z,97901.25
2023-03-13T07:45:58.452Z,97884.19
2023-03-13T07:56:05.695Z,97890.44
2023-03-13T08:06:15.134Z,97880.50
2023-03-13T08:16:22.033Z,97857.03
2023-03-13T08:26:30.924Z,97845.75
2023-03-13T08:36:37.625Z,97830.48
2023-03-13T08:46:45.840Z,97813.65
2023-03-13T08:56:53.380Z,97797.71
2023-03-13T09:07:00.502Z,97795.68
2023-03-13T09:17:06.857Z,97788.45
2023-03-13T09:27:14.328Z,97777.55
2023-03-13T09:37:21.503Z,97775.65
2023-03-13T09:47:38.316Z,97775.23
2023-03-13T09:57:51.590Z,97771.23
2023-03-13T10:07:57.933Z,97755.02
2023-03-13T10:18:02.658Z,97727.09
2023-03-13T10:28:09.979Z,97712.11
2023-03-13T10:38:19.372Z,97691.05
2023-03-13T10:48:28.911Z,97673.61
2023-03-13T10:58:38.638Z,97673.45
2023-03-13T11:08:45.694Z,97660.73
2023-03-13T11:18:59.150Z,97628.62
2023-03-13T11:29:04.780Z,97600.49
2023-03-13T11:39:17.401Z,97585.30
2023-03-13T11:49:45.724Z,97570.20
2023-03-13T11:59:50.874Z,97578.07
2023-03-13T12:10:01.608Z,97566.63
2023-03-13T12:20:15.345Z,97561.24
2023-03-13T12:30:25.920Z,97546.58
2023-03-13T12:40:36.337Z,97541.71
2023-03-13T12:50:44.601Z,97539.88
2023-03-13T13:00:53.536Z,97525.55
2023-03-13T13:11:15.205Z,97507.08
2023-03-13T13:21:29.667Z,97495.94
2023-03-13T13:31:55.503Z,97494.92
2023-03-13T13:42:04.007Z,97486.39
2023-03-13T13:52:39.684Z,97491.23
2023-03-13T14:02:47.723Z,97498.61
2023-03-13T14:12:55.380Z,97500.70
2023-03-13T14:23:02.062Z,97498.63
2023-03-13T14:33:09.604Z,97485.11
2023-03-13T14:43:36.713Z,97477.13
2023-03-13T14:53:54.240Z,97478.08
2023-03-13T15:04:01.573Z,97465.34
2023-03-13T15:14:33.719Z,97459.88
2023-03-13T15:24:41.092Z,97453.81
2023-03-13T15:34:48.981Z,97446.27
2023-03-13T15:44:55.347Z,97451.24
2023-03-13T15:55:03.201Z,97449.77
2023-03-13T16:05:10.275Z,97441.30
2023-03-13T16:15:17.909Z,97427.29
2023-03-13T16:25:26.117Z,97433.19
2023-03-13T16:35:33.751Z,97448.55
2023-03-13T16:45:42.084Z,97450.50
2023-03-13T16:55:51.109Z,97447.24
2023-03-13T17:05:58.366Z,97433.75
2023-03-13T17:16:11.323Z,97427.79
2023-03-13T17:26:17.132Z,97424.79
2023-03-13T17:36:27.232Z,97415.55
2023-03-13T17:46:39.583Z,97383.27
2023-03-13T17:56:47.478Z,97380.36
2023-03-13T18:06:54.564Z,97374.19
2023-03-13T18:17:01.611Z,97354.75
2023-03-13T18:27:07.219Z,97333.45
2023-03-13T18:37:16.570Z,97324.71
2023-03-13T18:47:27.542Z,97305.41
2023-03-13T18:57:35.060Z,97304.58
2023-03-13T19:07:42.751Z,97319.52
2023-03-13T19:17:49.726Z,97319.52
2023-03-13T19:38:03.628Z,97300.70
2023-03-13T19:48:11.857Z,97308.55
2023-03-13T19:58:19.564Z,97307.52
2023-03-13T20:08:26.937Z,97305.91
2023-03-13T20:18:32.847Z,97304.27
2023-03-13T20:28:41.257Z,97301.82
2023-03-13T20:38:48.910Z,97298.06
2023-03-13T20:48:58.819Z,97284.12
2023-03-13T20:59:05.137Z,97268.13
2023-03-13T21:09:13.737Z,97271.50
2023-03-13T21:19:21.484Z,97265.55
2023-03-13T21:29:28.700Z,97240.62
2023-03-13T21:39:36.174Z,97233.58
2023-03-13T21:49:43.569Z,97213.58
2023-03-13T21:59:50.945Z,97192.80
2023-03-13T22:09:58.213Z,97194.51
2023-03-13T22:20:06.567Z,97184.80
2023-03-13T22:30:15.075Z,97165.23
2023-03-13T22:40:22.483Z,97169.66
2023-03-13T22:50:28.656Z,97163.99
2023-03-13T23:00:36.361Z,97148.91
2023-03-13T23:10:43.244Z,97132.40
2023-03-13T23:20:50.925Z,97124.81
2023-03-13T23:30:58.106Z,97115.58
2023-03-13T23:41:06.994Z,97106.33
2023-03-13T23:51:13.339Z,97090.04
